sensor_id;sensor_type;location;lat;lon;timestamp;P1;durP1;ratioP1;P2;durP2;ratioP2
76807;SDS011;65758;45.458;11.062;2023-03-01T00:01:19;8.10;;;4.90;;
76807;SDS011;65758;45.458;11.062;2023-03-01T00:03:47;6.40;;;4.70;;
76807;SDS011;65758;45.458;11.062;2023-03-01T00:06:15;8.80;;;5.00;;
76807;SDS011;65758;45.458;11.062;2023-03-01T00:08:41;7.50;;;5.00;;
76807;SDS011;65758;45.458;11.062;2023-03-01T00:11:16;7.70;;;4.80;;
76807;SDS011;65758;45.458;11.062;2023-03-01T00:16:17;7.30;;;4.40;;
76807;SDS011;65758;45.458;11.062;2023-03-01T00:18:45;9.30;;;5.30;;
76807;SDS011;65758;45.458;11.062;2023-03-01T00:21:12;7.80;;;4.90;;
76807;SDS011;65758;45.458;11.062;2023-03-01T00:23:40;6.30;;;4.80;;
76807;SDS011;65758;45.458;11.062;2023-03-01T00:26:10;7.80;;;5.10;;
76807;SDS011;65758;45.458;11.062;2023-03-01T00:28:40;8.60;;;5.80;;
76807;SDS011;65758;45.458;11.062;2023-03-01T00:31:10;8.70;;;5.30;;
76807;SDS011;65758;45.458;11.062;2023-03-01T00:33:40;7.10;;;4.90;;
76807;SDS011;65758;45.458;11.062;2023-03-01T00:36:07;7.50;;;5.20;;
76807;SDS011;65758;45.458;11.062;2023-03-01T00:38:36;8.60;;;5.60;;
76807;SDS011;65758;45.458;11.062;2023-03-01T00:41:06;7.30;;;4.70;;
76807;SDS011;65758;45.458;11.062;2023-03-01T00:43:35;8.50;;;5.20;;
76807;SDS011;65758;45.458;11.062;2023-03-01T00:46:04;9.60;;;6.70;;
76807;SDS011;65758;45.458;11.062;2023-03-01T00:48:34;8.70;;;6.00;;
76807;SDS011;65758;45.458;11.062;2023-03-01T00:51:05;9.90;;;6.40;;
76807;SDS011;65758;45.458;11.062;2023-03-01T00:53:32;10.80;;;6.30;;
76807;SDS011;65758;45.458;11.062;2023-03-01T00:55:59;10.90;;;6.20;;
76807;SDS011;65758;45.458;11.062;2023-03-01T00:58:26;9.10;;;6.00;;
76807;SDS011;65758;45.458;11.062;2023-03-01T01:00:53;10.70;;;6.70;;
76807;SDS011;65758;45.458;11.062;2023-03-01T01:03:20;10.70;;;7.30;;
76807;SDS011;65758;45.458;11.062;2023-03-01T01:05:47;8.40;;;6.30;;
76807;SDS011;65758;45.458;11.062;2023-03-01T01:10:42;10.00;;;5.70;;
76807;SDS011;65758;45.458;11.062;2023-03-01T01:13:11;9.60;;;6.10;;
76807;SDS011;65758;45.458;11.062;2023-03-01T01:15:38;12.10;;;7.20;;
76807;SDS011;65758;45.458;11.062;2023-03-01T01:20:32;9.10;;;6.40;;
76807;SDS011;65758;45.458;11.062;2023-03-01T01:22:59;9.20;;;6.00;;
76807;SDS011;65758;45.458;11.062;2023-03-01T01:27:53;8.90;;;5.80;;
76807;SDS011;65758;45.458;11.062;2023-03-01T01:30:19;11.50;;;5.90;;
76807;SDS011;65758;45.458;11.062;2023-03-01T01:35:13;9.40;;;5.80;;
76807;SDS011;65758;45.458;11.062;2023-03-01T01:37:39;11.40;;;6.50;;
76807;SDS011;65758;45.458;11.062;2023-03-01T01:42:33;7.80;;;5.10;;
76807;SDS011;65758;45.458;11.062;2023-03-01T01:48:14;8.90;;;5.80;;
76807;SDS011;65758;45.458;11.062;2023-03-01T01:50:45;10.70;;;6.10;;
76807;SDS011;65758;45.458;11.062;2023-03-01T01:53:27;9.20;;;5.90;;
76807;SDS011;65758;45.458;11.062;2023-03-01T01:55:56;9.10;;;5.80;;
76807;SDS011;65758;45.458;11.062;2023-03-01T01:58:27;9.40;;;7.00;;
76807;SDS011;65758;45.458;11.062;2023-03-01T02:00:56;8.40;;;6.20;;
76807;SDS011;65758;45.458;11.062;2023-03-01T02:03:24;10.90;;;6.40;;
76807;SDS011;65758;45.458;11.062;2023-03-01T02:06:03;11.40;;;6.80;;
76807;SDS011;65758;45.458;11.062;2023-03-01T02:08:35;10.10;;;6.50;;
76807;SDS011;65758;45.458;11.062;2023-03-01T02:11:04;9.10;;;6.20;;
76807;SDS011;65758;45.458;11.062;2023-03-01T02:13:32;12.00;;;7.70;;
76807;SDS011;65758;45.458;11.062;2023-03-01T02:16:04;12.00;;;7.40;;
76807;SDS011;65758;45.458;11.062;2023-03-01T02:18:34;13.10;;;8.20;;
76807;SDS011;65758;45.458;11.062;2023-03-01T02:21:13;11.00;;;7.50;;
76807;SDS011;65758;45.458;11.062;2023-03-01T02:23:52;11.20;;;7.00;;
76807;SDS011;65758;45.458;11.062;2023-03-01T02:28:58;12.00;;;7.20;;
76807;SDS011;65758;45.458;11.062;2023-03-01T02:31:25;10.30;;;6.30;;
76807;SDS011;65758;45.458;11.062;2023-03-01T02:36:45;11.90;;;7.00;;
76807;SDS011;65758;45.458;11.062;2023-03-01T02:39:17;10.60;;;7.00;;
76807;SDS011;65758;45.458;11.062;2023-03-01T02:41:50;10.80;;;6.60;;
76807;SDS011;65758;45.458;11.062;2023-03-01T02:44:18;8.80;;;5.80;;
76807;SDS011;65758;45.458;11.062;2023-03-01T02:46:48;10.00;;;6.90;;
76807;SDS011;65758;45.458;11.062;2023-03-01T02:49:24;10.80;;;7.30;;
76807;SDS011;65758;45.458;11.062;2023-03-01T02:55:06;6.90;;;4.80;;
76807;SDS011;65758;45.458;11.062;2023-03-01T02:57:37;9.80;;;6.10;;
76807;SDS011;65758;45.458;11.062;2023-03-01T03:00:07;12.10;;;7.00;;
76807;SDS011;65758;45.458;11.062;2023-03-01T03:02:46;13.80;;;7.00;;
76807;SDS011;65758;45.458;11.062;2023-03-01T03:05:22;12.40;;;6.70;;
76807;SDS011;65758;45.458;11.062;2023-03-01T03:07:53;12.80;;;8.10;;
76807;SDS011;65758;45.458;11.062;2023-03-01T03:12:49;11.80;;;7.50;;
76807;SDS011;65758;45.458;11.062;2023-03-01T03:15:18;12.90;;;7.80;;
76807;SDS011;65758;45.458;11.062;2023-03-01T03:17:46;13.10;;;6.80;;
76807;SDS011;65758;45.458;11.062;2023-03-01T03:20:14;12.50;;;7.50;;
76807;SDS011;65758;45.458;11.062;2023-03-01T03:22:46;12.30;;;7.30;;
76807;SDS011;65758;45.458;11.062;2023-03-01T03:25:14;10.10;;;7.00;;
76807;SDS011;65758;45.458;11.062;2023-03-01T03:27:42;13.40;;;7.60;;
76807;SDS011;65758;45.458;11.062;2023-03-01T03:30:11;12.20;;;7.30;;
76807;SDS011;65758;45.458;11.062;2023-03-01T03:32:41;10.90;;;7.20;;
76807;SDS011;65758;45.458;11.062;2023-03-01T03:35:09;11.50;;;7.80;;
76807;SDS011;65758;45.458;11.062;2023-03-01T03:37:37;11.20;;;7.20;;
76807;SDS011;65758;45.458;11.062;2023-03-01T03:40:23;13.00;;;7.90;;
76807;SDS011;65758;45.458;11.062;2023-03-01T03:42:50;11.10;;;6.90;;
76807;SDS011;65758;45.458;11.062;2023-03-01T03:45:17;12.40;;;8.00;;
76807;SDS011;65758;45.458;11.062;2023-03-01T03:47:44;12.80;;;7.50;;
76807;SDS011;65758;45.458;11.062;2023-03-01T03:50:12;13.40;;;7.40;;
76807;SDS011;65758;45.458;11.062;2023-03-01T03:52:39;12.80;;;7.50;;
76807;SDS011;65758;45.458;11.062;2023-03-01T03:55:07;11.50;;;7.60;;
76807;SDS011;65758;45.458;11.062;2023-03-01T03:57:37;12.70;;;7.10;;
76807;SDS011;65758;45.458;11.062;2023-03-01T04:00:05;12.70;;;7.20;;
76807;SDS011;65758;45.458;11.062;2023-03-01T04:02:40;9.40;;;6.20;;
76807;SDS011;65758;45.458;11.062;2023-03-01T04:05:12;9.30;;;6.60;;
76807;SDS011;65758;45.458;11.062;2023-03-01T04:07:41;10.80;;;6.00;;
76807;SDS011;65758;45.458;11.062;2023-03-01T04:10:09;13.00;;;8.00;;
76807;SDS011;65758;45.458;11.062;2023-03-01T04:12:38;12.60;;;7.10;;
76807;SDS011;65758;45.458;11.062;2023-03-01T04:17:39;12.20;;;6.20;;
76807;SDS011;65758;45.458;11.062;2023-03-01T04:20:11;12.70;;;8.00;;
76807;SDS011;65758;45.458;11.062;2023-03-01T04:22:40;12.40;;;7.20;;
76807;SDS011;65758;45.458;11.062;2023-03-01T04:25:07;11.40;;;7.00;;
76807;SDS011;65758;45.458;11.062;2023-03-01T04:27:34;13.50;;;7.80;;
76807;SDS011;65758;45.458;11.062;2023-03-01T04:30:02;12.80;;;7.60;;
76807;SDS011;65758;45.458;11.062;2023-03-01T04:32:30;12.00;;;7.20;;
76807;SDS011;65758;45.458;11.062;2023-03-01T04:34:56;13.60;;;7.50;;
76807;SDS011;65758;45.458;11.062;2023-03-01T04:39:50;12.00;;;7.00;;
76807;SDS011;65758;45.458;11.062;2023-03-01T04:42:17;13.10;;;7.60;;
76807;SDS011;65758;45.458;11.062;2023-03-01T04:44:45;13.50;;;7.80;;
76807;SDS011;65758;45.458;11.062;2023-03-01T04:47:12;12.00;;;7.50;;
76807;SDS011;65758;45.458;11.062;2023-03-01T04:49:39;12.40;;;7.40;;
76807;SDS011;65758;45.458;11.062;2023-03-01T04:52:06;13.10;;;8.10;;
76807;SDS011;65758;45.458;11.062;2023-03-01T04:54:33;15.30;;;8.70;;
76807;SDS011;65758;45.458;11.062;2023-03-01T04:57:01;13.30;;;7.80;;
76807;SDS011;65758;45.458;11.062;2023-03-01T04:59:28;11.20;;;7.60;;
76807;SDS011;65758;45.458;11.062;2023-03-01T05:01:55;12.30;;;7.90;;
76807;SDS011;65758;45.458;11.062;2023-03-01T05:04:23;12.20;;;7.30;;
76807;SDS011;65758;45.458;11.062;2023-03-01T05:06:51;13.10;;;7.30;;
76807;SDS011;65758;45.458;11.062;2023-03-01T05:09:19;12.30;;;7.20;;
76807;SDS011;65758;45.458;11.062;2023-03-01T05:11:46;12.80;;;7.40;;
76807;SDS011;65758;45.458;11.062;2023-03-01T05:16:39;12.50;;;7.00;;
76807;SDS011;65758;45.458;11.062;2023-03-01T05:21:42;11.90;;;7.40;;
76807;SDS011;65758;45.458;11.062;2023-03-01T05:24:27;13.20;;;7.30;;
76807;SDS011;65758;45.458;11.062;2023-03-01T05:26:55;14.90;;;7.80;;
76807;SDS011;65758;45.458;11.062;2023-03-01T05:31:53;11.50;;;7.50;;
76807;SDS011;65758;45.458;11.062;2023-03-01T05:34:25;11.30;;;7.00;;
76807;SDS011;65758;45.458;11.062;2023-03-01T05:36:53;14.30;;;8.50;;
76807;SDS011;65758;45.458;11.062;2023-03-01T05:39:21;14.90;;;8.50;;
76807;SDS011;65758;45.458;11.062;2023-03-01T05:42:01;14.60;;;8.90;;
76807;SDS011;65758;45.458;11.062;2023-03-01T05:44:28;13.50;;;8.50;;
76807;SDS011;65758;45.458;11.062;2023-03-01T05:46:55;15.50;;;8.50;;
76807;SDS011;65758;45.458;11.062;2023-03-01T05:49:22;14.20;;;8.60;;
76807;SDS011;65758;45.458;11.062;2023-03-01T05:51:53;14.20;;;8.10;;
76807;SDS011;65758;45.458;11.062;2023-03-01T05:54:20;18.30;;;9.70;;
76807;SDS011;65758;45.458;11.062;2023-03-01T05:56:48;18.30;;;8.80;;
76807;SDS011;65758;45.458;11.062;2023-03-01T06:01:42;12.80;;;6.60;;
76807;SDS011;65758;45.458;11.062;2023-03-01T06:04:10;16.00;;;8.40;;
76807;SDS011;65758;45.458;11.062;2023-03-01T06:06:37;14.00;;;7.80;;
76807;SDS011;65758;45.458;11.062;2023-03-01T06:09:04;12.80;;;7.60;;
76807;SDS011;65758;45.458;11.062;2023-03-01T06:11:34;14.20;;;8.70;;
76807;SDS011;65758;45.458;11.062;2023-03-01T06:14:02;14.20;;;8.10;;
76807;SDS011;65758;45.458;11.062;2023-03-01T06:16:29;18.70;;;10.30;;
76807;SDS011;65758;45.458;11.062;2023-03-01T06:18:56;15.10;;;9.00;;
76807;SDS011;65758;45.458;11.062;2023-03-01T06:21:24;16.20;;;9.20;;
76807;SDS011;65758;45.458;11.062;2023-03-01T06:23:50;17.00;;;10.20;;
76807;SDS011;65758;45.458;11.062;2023-03-01T06:26:18;15.20;;;9.80;;
76807;SDS011;65758;45.458;11.062;2023-03-01T06:28:45;18.90;;;10.70;;
76807;SDS011;65758;45.458;11.062;2023-03-01T06:31:12;15.90;;;9.30;;
76807;SDS011;65758;45.458;11.062;2023-03-01T06:33:39;17.50;;;10.70;;
76807;SDS011;65758;45.458;11.062;2023-03-01T06:36:06;15.60;;;9.50;;
76807;SDS011;65758;45.458;11.062;2023-03-01T06:38:34;16.30;;;10.20;;
76807;SDS011;65758;45.458;11.062;2023-03-01T06:43:28;16.40;;;9.50;;
76807;SDS011;65758;45.458;11.062;2023-03-01T06:45:55;16.00;;;9.90;;
76807;SDS011;65758;45.458;11.062;2023-03-01T06:48:22;15.20;;;8.50;;
76807;SDS011;65758;45.458;11.062;2023-03-01T06:53:15;16.20;;;7.90;;
76807;SDS011;65758;45.458;11.062;2023-03-01T06:58:09;12.20;;;8.30;;
76807;SDS011;65758;45.458;11.062;2023-03-01T07:00:36;16.70;;;9.20;;
76807;SDS011;65758;45.458;11.062;2023-03-01T07:05:30;20.80;;;11.70;;
76807;SDS011;65758;45.458;11.062;2023-03-01T07:07:57;16.90;;;9.50;;
76807;SDS011;65758;45.458;11.062;2023-03-01T07:10:24;20.50;;;10.90;;
76807;SDS011;65758;45.458;11.062;2023-03-01T07:12:53;19.80;;;10.80;;
76807;SDS011;65758;45.458;11.062;2023-03-01T07:15:21;21.80;;;11.00;;
76807;SDS011;65758;45.458;11.062;2023-03-01T07:17:48;16.00;;;10.20;;
76807;SDS011;65758;45.458;11.062;2023-03-01T07:20:17;23.00;;;11.40;;
76807;SDS011;65758;45.458;11.062;2023-03-01T07:22:45;20.30;;;10.70;;
76807;SDS011;65758;45.458;11.062;2023-03-01T07:27:38;17.30;;;9.70;;
76807;SDS011;65758;45.458;11.062;2023-03-01T07:32:32;13.20;;;7.80;;
76807;SDS011;65758;45.458;11.062;2023-03-01T07:34:59;21.30;;;12.40;;
76807;SDS011;65758;45.458;11.062;2023-03-01T07:39:52;17.30;;;11.00;;
76807;SDS011;65758;45.458;11.062;2023-03-01T07:42:19;17.70;;;11.30;;
76807;SDS011;65758;45.458;11.062;2023-03-01T07:47:13;23.00;;;11.80;;
76807;SDS011;65758;45.458;11.062;2023-03-01T07:49:39;22.90;;;11.80;;
76807;SDS011;65758;45.458;11.062;2023-03-01T07:52:06;22.00;;;11.00;;
76807;SDS011;65758;45.458;11.062;2023-03-01T07:54:35;17.50;;;11.20;;
76807;SDS011;65758;45.458;11.062;2023-03-01T07:57:02;18.70;;;11.70;;
76807;SDS011;65758;45.458;11.062;2023-03-01T07:59:29;17.90;;;10.30;;
76807;SDS011;65758;45.458;11.062;2023-03-01T08:01:56;20.40;;;11.30;;
76807;SDS011;65758;45.458;11.062;2023-03-01T08:04:24;19.50;;;11.20;;
76807;SDS011;65758;45.458;11.062;2023-03-01T08:06:56;17.90;;;11.80;;
76807;SDS011;65758;45.458;11.062;2023-03-01T08:09:23;19.00;;;11.50;;
76807;SDS011;65758;45.458;11.062;2023-03-01T08:14:16;21.30;;;11.30;;
76807;SDS011;65758;45.458;11.062;2023-03-01T08:16:43;23.90;;;12.00;;
76807;SDS011;65758;45.458;11.062;2023-03-01T08:19:11;18.60;;;12.30;;
76807;SDS011;65758;45.458;11.062;2023-03-01T08:21:38;19.70;;;12.90;;
76807;SDS011;65758;45.458;11.062;2023-03-01T08:24:05;18.80;;;11.80;;
76807;SDS011;65758;45.458;11.062;2023-03-01T08:26:33;20.60;;;11.80;;
76807;SDS011;65758;45.458;11.062;2023-03-01T08:29:00;23.80;;;12.70;;
76807;SDS011;65758;45.458;11.062;2023-03-01T08:34:05;22.50;;;12.80;;
76807;SDS011;65758;45.458;11.062;2023-03-01T08:36:36;23.30;;;13.00;;
76807;SDS011;65758;45.458;11.062;2023-03-01T08:39:04;18.90;;;11.80;;
76807;SDS011;65758;45.458;11.062;2023-03-01T08:41:32;25.40;;;12.70;;
76807;SDS011;65758;45.458;11.062;2023-03-01T08:43:59;23.60;;;12.50;;
76807;SDS011;65758;45.458;11.062;2023-03-01T08:46:30;23.00;;;12.80;;
76807;SDS011;65758;45.458;11.062;2023-03-01T08:48:59;21.10;;;12.10;;
76807;SDS011;65758;45.458;11.062;2023-03-01T08:51:26;21.10;;;12.40;;
76807;SDS011;65758;45.458;11.062;2023-03-01T08:53:53;21.40;;;12.80;;
76807;SDS011;65758;45.458;11.062;2023-03-01T08:56:20;24.10;;;14.00;;
76807;SDS011;65758;45.458;11.062;2023-03-01T08:58:47;22.70;;;13.00;;
76807;SDS011;65758;45.458;11.062;2023-03-01T09:01:16;22.80;;;13.30;;
76807;SDS011;65758;45.458;11.062;2023-03-01T09:03:44;22.30;;;13.80;;
76807;SDS011;65758;45.458;11.062;2023-03-01T09:06:12;24.10;;;14.20;;
76807;SDS011;65758;45.458;11.062;2023-03-01T09:08:45;21.00;;;13.10;;
76807;SDS011;65758;45.458;11.062;2023-03-01T09:11:14;19.30;;;11.90;;
76807;SDS011;65758;45.458;11.062;2023-03-01T09:13:43;27.60;;;15.60;;
76807;SDS011;65758;45.458;11.062;2023-03-01T09:16:12;20.90;;;13.10;;
76807;SDS011;65758;45.458;11.062;2023-03-01T09:18:40;23.30;;;13.50;;
76807;SDS011;65758;45.458;11.062;2023-03-01T09:21:08;25.30;;;14.60;;
76807;SDS011;65758;45.458;11.062;2023-03-01T09:23:36;22.20;;;13.30;;
76807;SDS011;65758;45.458;11.062;2023-03-01T09:26:06;18.80;;;12.00;;
76807;SDS011;65758;45.458;11.062;2023-03-01T09:28:35;20.30;;;12.60;;
76807;SDS011;65758;45.458;11.062;2023-03-01T09:31:02;20.00;;;12.30;;
76807;SDS011;65758;45.458;11.062;2023-03-01T09:33:31;19.80;;;12.50;;
76807;SDS011;65758;45.458;11.062;2023-03-01T09:36:02;20.60;;;13.10;;
76807;SDS011;65758;45.458;11.062;2023-03-01T09:38:31;17.20;;;11.40;;
76807;SDS011;65758;45.458;11.062;2023-03-01T09:40:59;19.40;;;11.90;;
76807;SDS011;65758;45.458;11.062;2023-03-01T09:43:29;23.60;;;13.60;;
76807;SDS011;65758;45.458;11.062;2023-03-01T09:46:07;20.30;;;12.60;;
76807;SDS011;65758;45.458;11.062;2023-03-01T09:48:44;20.90;;;11.80;;
76807;SDS011;65758;45.458;11.062;2023-03-01T09:51:25;15.30;;;10.00;;
76807;SDS011;65758;45.458;11.062;2023-03-01T09:53:56;20.40;;;12.80;;
76807;SDS011;65758;45.458;11.062;2023-03-01T09:56:36;14.70;;;9.10;;
76807;SDS011;65758;45.458;11.062;2023-03-01T10:01:44;17.50;;;10.40;;
76807;SDS011;65758;45.458;11.062;2023-03-01T10:04:32;15.90;;;10.60;;
76807;SDS011;65758;45.458;11.062;2023-03-01T10:10:05;21.90;;;12.70;;
76807;SDS011;65758;45.458;11.062;2023-03-01T10:12:37;20.30;;;12.50;;
76807;SDS011;65758;45.458;11.062;2023-03-01T10:15:14;18.10;;;10.30;;
76807;SDS011;65758;45.458;11.062;2023-03-01T10:20:33;16.10;;;10.50;;
76807;SDS011;65758;45.458;11.062;2023-03-01T10:23:04;17.80;;;9.90;;
76807;SDS011;65758;45.458;11.062;2023-03-01T10:28:14;15.30;;;10.20;;
76807;SDS011;65758;45.458;11.062;2023-03-01T10:31:03;19.60;;;10.60;;
76807;SDS011;65758;45.458;11.062;2023-03-01T10:33:31;18.50;;;11.00;;
76807;SDS011;65758;45.458;11.062;2023-03-01T10:36:01;19.70;;;12.20;;
76807;SDS011;65758;45.458;11.062;2023-03-01T10:38:30;21.30;;;13.50;;
76807;SDS011;65758;45.458;11.062;2023-03-01T10:41:12;19.20;;;11.30;;
76807;SDS011;65758;45.458;11.062;2023-03-01T10:46:21;20.50;;;11.80;;
76807;SDS011;65758;45.458;11.062;2023-03-01T10:51:50;16.40;;;10.70;;
76807;SDS011;65758;45.458;11.062;2023-03-01T10:54:22;15.30;;;9.90;;
76807;SDS011;65758;45.458;11.062;2023-03-01T10:56:51;17.80;;;9.70;;
76807;SDS011;65758;45.458;11.062;2023-03-01T10:59:31;12.60;;;8.60;;
76807;SDS011;65758;45.458;11.062;2023-03-01T11:02:01;12.80;;;9.00;;
76807;SDS011;65758;45.458;11.062;2023-03-01T11:04:46;15.00;;;10.70;;
76807;SDS011;65758;45.458;11.062;2023-03-01T11:07:50;14.40;;;9.80;;
76807;SDS011;65758;45.458;11.062;2023-03-01T11:10:23;12.60;;;8.90;;
76807;SDS011;65758;45.458;11.062;2023-03-01T11:15:20;13.90;;;8.50;;
76807;SDS011;65758;45.458;11.062;2023-03-01T11:17:50;14.30;;;8.30;;
76807;SDS011;65758;45.458;11.062;2023-03-01T11:22:56;17.00;;;9.50;;
76807;SDS011;65758;45.458;11.062;2023-03-01T11:25:27;12.80;;;8.60;;
76807;SDS011;65758;45.458;11.062;2023-03-01T11:27:59;14.00;;;8.80;;
76807;SDS011;65758;45.458;11.062;2023-03-01T11:30:29;12.80;;;8.60;;
76807;SDS011;65758;45.458;11.062;2023-03-01T11:35:35;12.40;;;8.00;;
76807;SDS011;65758;45.458;11.062;2023-03-01T11:38:15;12.70;;;8.00;;
76807;SDS011;65758;45.458;11.062;2023-03-01T11:41:01;11.50;;;7.90;;
76807;SDS011;65758;45.458;11.062;2023-03-01T12:03:21;12.60;;;8.20;;
76807;SDS011;65758;45.458;11.062;2023-03-01T12:05:54;11.50;;;8.00;;
76807;SDS011;65758;45.458;11.062;2023-03-01T12:08:56;11.40;;;6.70;;
76807;SDS011;65758;45.458;11.062;2023-03-01T12:27:51;6.50;;;4.00;;
76807;SDS011;65758;45.458;11.062;2023-03-01T12:33:01;6.50;;;3.80;;
76807;SDS011;65758;45.458;11.062;2023-03-01T12:49:07;8.10;;;4.20;;
76807;SDS011;65758;45.458;11.062;2023-03-01T12:51:37;15.40;;;5.40;;
76807;SDS011;65758;45.458;11.062;2023-03-01T12:54:15;7.50;;;4.90;;
76807;SDS011;65758;45.458;11.062;2023-03-01T12:56:52;7.10;;;4.30;;
76807;SDS011;65758;45.458;11.062;2023-03-01T12:59:33;4.70;;;3.20;;
76807;SDS011;65758;45.458;11.062;2023-03-01T13:02:19;6.80;;;4.20;;
76807;SDS011;65758;45.458;11.062;2023-03-01T13:13:48;5.60;;;2.90;;
76807;SDS011;65758;45.458;11.062;2023-03-01T13:19:17;5.20;;;3.80;;
76807;SDS011;65758;45.458;11.062;2023-03-01T13:21:47;5.70;;;3.70;;
76807;SDS011;65758;45.458;11.062;2023-03-01T13:32:20;8.70;;;3.70;;
76807;SDS011;65758;45.458;11.062;2023-03-01T13:35:00;3.50;;;2.00;;
76807;SDS011;65758;45.458;11.062;2023-03-01T13:37:32;9.70;;;3.40;;
76807;SDS011;65758;45.458;11.062;2023-03-01T13:40:02;6.40;;;3.00;;
76807;SDS011;65758;45.458;11.062;2023-03-01T13:42:51;6.30;;;3.50;;
76807;SDS011;65758;45.458;11.062;2023-03-01T13:45:40;9.10;;;3.70;;
76807;SDS011;65758;45.458;11.062;2023-03-01T13:48:21;5.70;;;3.60;;
76807;SDS011;65758;45.458;11.062;2023-03-01T13:50:53;11.80;;;4.10;;
76807;SDS011;65758;45.458;11.062;2023-03-01T13:53:25;9.50;;;3.80;;
76807;SDS011;65758;45.458;11.062;2023-03-01T13:56:00;5.60;;;3.60;;
76807;SDS011;65758;45.458;11.062;2023-03-01T13:58:30;9.80;;;3.70;;
76807;SDS011;65758;45.458;11.062;2023-03-01T14:01:03;10.00;;;4.60;;
76807;SDS011;65758;45.458;11.062;2023-03-01T14:06:07;7.70;;;3.70;;
76807;SDS011;65758;45.458;11.062;2023-03-01T14:08:43;6.80;;;3.30;;
76807;SDS011;65758;45.458;11.062;2023-03-01T14:16:59;9.50;;;4.30;;
76807;SDS011;65758;45.458;11.062;2023-03-01T14:19:43;4.70;;;2.90;;
76807;SDS011;65758;45.458;11.062;2023-03-01T14:30:19;4.40;;;2.60;;
76807;SDS011;65758;45.458;11.062;2023-03-01T14:33:18;3.80;;;2.30;;
76807;SDS011;65758;45.458;11.062;2023-03-01T14:36:03;2.70;;;2.10;;
76807;SDS011;65758;45.458;11.062;2023-03-01T14:38:39;5.70;;;3.40;;
76807;SDS011;65758;45.458;11.062;2023-03-01T14:41:20;4.30;;;2.60;;
76807;SDS011;65758;45.458;11.062;2023-03-01T14:43:50;5.10;;;2.40;;
76807;SDS011;65758;45.458;11.062;2023-03-01T14:46:20;7.00;;;3.60;;
76807;SDS011;65758;45.458;11.062;2023-03-01T14:48:51;4.90;;;3.10;;
76807;SDS011;65758;45.458;11.062;2023-03-01T14:51:20;9.00;;;3.20;;
76807;SDS011;65758;45.458;11.062;2023-03-01T14:53:47;6.00;;;2.90;;
76807;SDS011;65758;45.458;11.062;2023-03-01T14:56:17;3.90;;;2.90;;
76807;SDS011;65758;45.458;11.062;2023-03-01T14:58:45;6.70;;;3.30;;
76807;SDS011;65758;45.458;11.062;2023-03-01T15:01:16;6.60;;;3.30;;
76807;SDS011;65758;45.458;11.062;2023-03-01T15:03:45;6.20;;;3.00;;
76807;SDS011;65758;45.458;11.062;2023-03-01T15:06:14;4.20;;;3.10;;
76807;SDS011;65758;45.458;11.062;2023-03-01T15:08:50;4.10;;;2.90;;
76807;SDS011;65758;45.458;11.062;2023-03-01T15:11:20;5.80;;;3.40;;
76807;SDS011;65758;45.458;11.062;2023-03-01T15:13:55;6.10;;;3.30;;
76807;SDS011;65758;45.458;11.062;2023-03-01T15:16:24;5.60;;;3.10;;
76807;SDS011;65758;45.458;11.062;2023-03-01T15:18:59;8.20;;;3.90;;
76807;SDS011;65758;45.458;11.062;2023-03-01T15:21:30;9.90;;;3.80;;
76807;SDS011;65758;45.458;11.062;2023-03-01T15:24:02;5.90;;;3.80;;
76807;SDS011;65758;45.458;11.062;2023-03-01T15:29:28;6.80;;;3.80;;
76807;SDS011;65758;45.458;11.062;2023-03-01T15:32:00;7.50;;;3.90;;
76807;SDS011;65758;45.458;11.062;2023-03-01T15:37:03;14.10;;;6.10;;
76807;SDS011;65758;45.458;11.062;2023-03-01T15:39:54;9.10;;;5.10;;
76807;SDS011;65758;45.458;11.062;2023-03-01T15:47:46;10.40;;;5.50;;
76807;SDS011;65758;45.458;11.062;2023-03-01T15:50:21;9.70;;;4.90;;
76807;SDS011;65758;45.458;11.062;2023-03-01T15:52:49;8.50;;;5.60;;
76807;SDS011;65758;45.458;11.062;2023-03-01T15:55:38;12.50;;;6.30;;
76807;SDS011;65758;45.458;11.062;2023-03-01T15:58:14;8.10;;;5.30;;
76807;SDS011;65758;45.458;11.062;2023-03-01T16:00:43;10.40;;;6.50;;
76807;SDS011;65758;45.458;11.062;2023-03-01T16:03:25;16.60;;;7.80;;
76807;SDS011;65758;45.458;11.062;2023-03-01T16:05:52;11.90;;;5.80;;
76807;SDS011;65758;45.458;11.062;2023-03-01T16:08:20;10.20;;;6.20;;
76807;SDS011;65758;45.458;11.062;2023-03-01T16:10:46;12.20;;;6.20;;
76807;SDS011;65758;45.458;11.062;2023-03-01T16:13:16;9.40;;;5.50;;
76807;SDS011;65758;45.458;11.062;2023-03-01T16:15:44;12.80;;;6.30;;
76807;SDS011;65758;45.458;11.062;2023-03-01T16:18:11;10.00;;;5.50;;
76807;SDS011;65758;45.458;11.062;2023-03-01T16:20:38;6.90;;;5.10;;
76807;SDS011;65758;45.458;11.062;2023-03-01T16:23:06;8.40;;;5.20;;
76807;SDS011;65758;45.458;11.062;2023-03-01T16:25:34;8.20;;;5.40;;
76807;SDS011;65758;45.458;11.062;2023-03-01T16:28:02;10.50;;;5.20;;
76807;SDS011;65758;45.458;11.062;2023-03-01T16:30:35;9.40;;;6.40;;
76807;SDS011;65758;45.458;11.062;2023-03-01T16:33:03;8.80;;;5.90;;
76807;SDS011;65758;45.458;11.062;2023-03-01T16:35:51;10.00;;;5.40;;
76807;SDS011;65758;45.458;11.062;2023-03-01T16:38:18;8.70;;;5.40;;
76807;SDS011;65758;45.458;11.062;2023-03-01T16:40:49;8.80;;;6.00;;
76807;SDS011;65758;45.458;11.062;2023-03-01T16:43:17;10.60;;;6.30;;
76807;SDS011;65758;45.458;11.062;2023-03-01T16:45:44;15.00;;;6.50;;
76807;SDS011;65758;45.458;11.062;2023-03-01T16:48:12;11.10;;;6.50;;
76807;SDS011;65758;45.458;11.062;2023-03-01T16:50:38;10.90;;;7.20;;
76807;SDS011;65758;45.458;11.062;2023-03-01T16:53:05;14.80;;;8.50;;
76807;SDS011;65758;45.458;11.062;2023-03-01T16:55:32;9.50;;;6.10;;
76807;SDS011;65758;45.458;11.062;2023-03-01T16:58:00;12.30;;;6.40;;
76807;SDS011;65758;45.458;11.062;2023-03-01T17:00:27;9.20;;;6.00;;
76807;SDS011;65758;45.458;11.062;2023-03-01T17:02:55;10.70;;;6.30;;
76807;SDS011;65758;45.458;11.062;2023-03-01T17:05:21;9.20;;;5.90;;
76807;SDS011;65758;45.458;11.062;2023-03-01T17:07:50;7.10;;;5.00;;
76807;SDS011;65758;45.458;11.062;2023-03-01T17:10:17;5.00;;;3.80;;
76807;SDS011;65758;45.458;11.062;2023-03-01T17:12:44;7.80;;;4.60;;
76807;SDS011;65758;45.458;11.062;2023-03-01T17:15:14;6.90;;;4.80;;
76807;SDS011;65758;45.458;11.062;2023-03-01T17:17:41;4.90;;;3.80;;
76807;SDS011;65758;45.458;11.062;2023-03-01T17:20:08;6.50;;;4.60;;
76807;SDS011;65758;45.458;11.062;2023-03-01T17:22:35;6.30;;;4.80;;
76807;SDS011;65758;45.458;11.062;2023-03-01T17:25:02;5.90;;;4.80;;
76807;SDS011;65758;45.458;11.062;2023-03-01T17:27:30;7.00;;;5.50;;
76807;SDS011;65758;45.458;11.062;2023-03-01T17:30:01;6.90;;;5.10;;
76807;SDS011;65758;45.458;11.062;2023-03-01T17:32:28;6.30;;;4.50;;
76807;SDS011;65758;45.458;11.062;2023-03-01T17:34:55;7.70;;;5.30;;
76807;SDS011;65758;45.458;11.062;2023-03-01T17:39:48;8.10;;;5.40;;
76807;SDS011;65758;45.458;11.062;2023-03-01T17:42:15;7.50;;;5.00;;
76807;SDS011;65758;45.458;11.062;2023-03-01T17:44:42;5.90;;;4.80;;
76807;SDS011;65758;45.458;11.062;2023-03-01T17:47:09;5.70;;;5.10;;
76807;SDS011;65758;45.458;11.062;2023-03-01T17:49:36;6.00;;;5.20;;
76807;SDS011;65758;45.458;11.062;2023-03-01T17:52:03;6.80;;;4.60;;
76807;SDS011;65758;45.458;11.062;2023-03-01T17:54:30;5.50;;;4.70;;
76807;SDS011;65758;45.458;11.062;2023-03-01T17:56:59;7.00;;;5.00;;